Time;durP1;ratioP1;P1;durP2;ratioP2;P2;SDS_P1;SDS_P2;PMS_P1;PMS_P2;Temp;Humidity;BMP_temperature;BMP_pressure;BME280_temperature;BME280_humidity;BME280_pressure;Samples;Min_cycle;Max_cycle;Signal;HPM_P1;HPM_P2
2022/07/20 00:00:07;;;;;;;8.02;5.47;;;24.20;7.80;;;;;;5053516;28;20391;-75
2022/07/20 00:02:32;;;;;;;8.13;5.03;;;24.20;7.80;;;;;;5053053;28;20442;-74
2022/07/20 00:04:58;;;;;;;6.40;4.60;;;24.20;7.90;;;;;;5052152;28;20460;-75
2022/07/20 00:07:23;;;;;;;7.67;5.40;;;24.20;8.00;;;;;;5053669;28;20462;-75
2022/07/20 00:12:33;;;;;;;6.20;4.88;;;24.20;8.00;;;;;;5052933;28;20400;-75
2022/07/20 00:14:59;;;;;;;8.03;5.00;;;24.20;8.10;;;;;;5052840;28;20389;-74
2022/07/20 00:17:24;;;;;;;5.85;4.93;;;24.10;8.30;;;;;;5052848;28;20389;-75
2022/07/20 00:19:50;;;;;;;7.43;5.20;;;24.20;8.20;;;;;;5032868;28;20406;-75
2022/07/20 00:22:15;;;;;;;6.57;5.00;;;24.20;8.10;;;;;;5049821;28;20760;-75
2022/07/20 00:24:42;;;;;;;9.20;5.80;;;24.20;8.00;;;;;;5052903;28;20471;-74
2022/07/20 00:27:07;;;;;;;6.65;5.05;;;24.20;8.20;;;;;;5035554;28;20426;-74
2022/07/20 00:29:33;;;;;;;9.40;4.65;;;24.20;8.40;;;;;;5033116;28;20895;-74
2022/07/20 00:31:58;;;;;;;5.97;4.70;;;24.20;8.00;;;;;;5033900;28;20390;-76
2022/07/20 00:34:24;;;;;;;11.60;5.30;;;24.20;7.90;;;;;;5034453;28;20445;-75
2022/07/20 00:36:49;;;;;;;8.43;5.03;;;24.20;8.00;;;;;;5032533;28;20383;-75
2022/07/20 00:39:15;;;;;;;11.60;5.75;;;24.20;8.40;;;;;;5032540;28;20395;-76
2022/07/20 00:41:41;;;;;;;10.50;5.13;;;24.10;8.40;;;;;;5031466;28;20470;-75
2022/07/20 00:44:09;;;;;;;7.90;5.40;;;24.10;8.20;;;;;;5031161;28;20383;-76
2022/07/20 00:46:39;;;;;;;5.30;4.80;;;24.00;8.40;;;;;;5044694;28;20440;-75
2022/07/20 00:49:06;;;;;;;7.68;5.60;;;24.00;8.20;;;;;;5052254;28;20400;-74
2022/07/20 00:51:33;;;;;;;8.60;5.43;;;24.00;8.40;;;;;;5051378;28;20431;-75
2022/07/20 00:53:59;;;;;;;7.50;4.90;;;24.10;8.10;;;;;;5051499;28;20373;-75
2022/07/20 00:56:25;;;;;;;9.35;4.90;;;24.10;8.10;;;;;;5031863;28;20383;-76
2022/07/20 00:58:51;;;;;;;8.70;5.22;;;24.10;8.20;;;;;;5032044;28;20465;-75
2022/07/20 01:01:17;;;;;;;7.55;5.30;;;24.10;8.40;;;;;;5042101;28;20874;-75
2022/07/20 01:03:43;;;;;;;6.90;5.00;;;24.10;8.80;;;;;;5052125;28;20378;-76
2022/07/20 01:06:09;;;;;;;9.57;5.80;;;24.00;8.40;;;;;;5037479;28;20891;-75
2022/07/20 01:08:35;;;;;;;8.07;5.50;;;24.00;8.50;;;;;;5036619;28;20397;-75
2022/07/20 01:11:01;;;;;;;10.87;5.57;;;23.90;8.80;;;;;;5035227;28;20419;-74
2022/07/20 01:13:27;;;;;;;10.52;5.07;;;23.90;8.70;;;;;;5037731;28;20403;-74
2022/07/20 01:15:53;;;;;;;14.32;7.20;;;23.90;8.70;;;;;;5042596;28;20402;-75
2022/07/20 01:18:19;;;;;;;9.50;5.97;;;23.90;9.70;;;;;;5031388;28;20383;-74
2022/07/20 01:20:46;;;;;;;13.95;10.20;;;23.90;9.00;;;;;;5047140;28;20484;-74
2022/07/20 01:23:16;;;;;;;41.83;27.52;;;23.90;9.30;;;;;;5042667;28;20390;-73
2022/07/20 01:25:43;;;;;;;11.40;6.18;;;23.90;9.30;;;;;;5030109;28;20405;-75
2022/07/20 01:28:10;;;;;;;13.97;9.47;;;24.00;8.40;;;;;;5031383;28;20600;-73
2022/07/20 01:30:37;;;;;;;6.80;5.10;;;24.00;8.80;;;;;;5031810;28;20407;-75
2022/07/20 01:33:02;;;;;;;7.80;5.40;;;24.00;8.50;;;;;;5031642;28;20468;-73
2022/07/20 01:35:28;;;;;;;10.57;5.22;;;24.00;8.50;;;;;;5031919;28;20991;-75
2022/07/20 01:37:53;;;;;;;10.60;6.33;;;24.00;8.60;;;;;;5045622;28;20397;-75
2022/07/20 01:40:19;;;;;;;8.23;5.40;;;24.00;8.40;;;;;;5050565;28;20391;-75
2022/07/20 01:42:44;;;;;;;8.40;5.57;;;24.00;8.30;;;;;;5051947;28;20381;-75
2022/07/20 01:45:10;;;;;;;8.80;5.50;;;24.10;8.30;;;;;;5051707;28;20381;-75
2022/07/20 01:47:36;;;;;;;6.22;5.03;;;24.10;8.50;;;;;;5052396;28;20404;-76
2022/07/20 01:50:02;;;;;;;11.43;5.20;;;24.10;8.30;;;;;;5051117;28;20413;-75
2022/07/20 01:52:28;;;;;;;15.70;6.20;;;24.10;8.40;;;;;;5049689;28;20415;-75
2022/07/20 01:54:53;;;;;;;12.83;5.60;;;24.10;8.60;;;;;;5050970;28;20390;-75
2022/07/20 01:57:19;;;;;;;13.10;5.60;;;24.10;8.40;;;;;;5050898;28;20392;-75
2022/07/20 01:59:44;;;;;;;7.50;4.87;;;24.00;8.60;;;;;;5051099;28;20396;-76
2022/07/20 02:02:10;;;;;;;9.20;5.40;;;24.10;8.30;;;;;;5050727;28;20388;-76
2022/07/20 02:04:35;;;;;;;7.20;5.10;;;24.10;8.50;;;;;;5050970;28;20527;-76
2022/07/20 02:07:01;;;;;;;8.80;5.00;;;24.20;8.10;;;;;;5050712;28;20465;-76
2022/07/20 02:09:27;;;;;;;9.67;5.03;;;24.20;7.90;;;;;;5050813;28;20413;-76
2022/07/20 02:11:52;;;;;;;11.48;6.00;;;24.20;7.80;;;;;;5051037;28;20377;-76
2022/07/20 02:14:18;;;;;;;11.03;6.13;;;24.20;7.80;;;;;;5050717;28;20385;-76
2022/07/20 02:16:44;;;;;;;12.82;5.57;;;24.30;7.80;;;;;;5050666;28;20377;-76
2022/07/20 02:19:09;;;;;;;13.67;5.30;;;24.20;7.90;;;;;;5050746;28;20441;-76
2022/07/20 02:21:35;;;;;;;8.38;6.10;;;24.30;7.70;;;;;;5050314;28;20874;-76
2022/07/20 02:24:00;;;;;;;7.43;5.30;;;24.20;7.90;;;;;;5051558;28;20389;-76
2022/07/20 02:26:26;;;;;;;12.77;5.10;;;24.20;8.00;;;;;;5050300;28;20443;-76
2022/07/20 02:28:52;;;;;;;8.05;4.85;;;24.30;7.50;;;;;;5050919;28;20400;-77
2022/07/20 02:31:19;;;;;;;12.97;5.77;;;24.30;7.50;;;;;;5052192;28;20412;-76
2022/07/20 02:33:45;;;;;;;9.10;5.40;;;24.40;7.40;;;;;;5052497;28;20381;-76
2022/07/20 02:36:11;;;;;;;8.37;5.10;;;24.40;7.40;;;;;;5051282;28;20381;-76
2022/07/20 02:38:37;;;;;;;8.17;5.07;;;24.30;7.70;;;;;;5049490;28;20381;-76
2022/07/20 02:41:03;;;;;;;9.05;5.05;;;24.20;7.80;;;;;;5050928;28;20737;-76
2022/07/20 02:43:29;;;;;;;7.70;4.85;;;24.20;7.90;;;;;;5051560;28;20472;-77
2022/07/20 02:45:54;;;;;;;10.23;5.50;;;24.20;7.90;;;;;;5051039;28;20461;-77
2022/07/20 02:48:20;;;;;;;9.65;5.65;;;24.10;8.00;;;;;;5050956;28;20862;-76
2022/07/20 02:50:46;;;;;;;6.90;5.20;;;24.10;8.20;;;;;;5050830;28;20405;-76
2022/07/20 02:53:12;;;;;;;9.43;5.18;;;24.10;8.10;;;;;;5050217;28;20888;-76
2022/07/20 02:55:39;;;;;;;10.48;5.80;;;24.10;8.20;;;;;;5050657;28;20821;-76
2022/07/20 02:58:05;;;;;;;10.03;5.10;;;24.10;8.00;;;;;;5050230;28;20378;-76
2022/07/20 03:00:31;;;;;;;10.48;4.90;;;24.20;8.10;;;;;;5050571;28;20475;-76
2022/07/20 03:02:56;;;;;;;9.43;5.53;;;24.30;8.10;;;;;;5050196;28;20381;-76
2022/07/20 03:05:22;;;;;;;7.00;5.43;;;24.50;7.50;;;;;;5050370;28;20385;-76
2022/07/20 03:07:48;;;;;;;10.30;5.00;;;24.60;7.20;;;;;;5050223;28;20392;-77
2022/07/20 03:10:14;;;;;;;5.90;5.13;;;24.60;7.00;;;;;;5050145;28;20405;-76
2022/07/20 03:12:40;;;;;;;18.83;5.47;;;24.70;6.90;;;;;;5049986;28;20373;-76
2022/07/20 03:15:07;;;;;;;7.87;5.17;;;24.70;6.90;;;;;;5053861;28;20931;-76
2022/07/20 03:17:32;;;;;;;8.55;5.15;;;24.80;6.40;;;;;;5054046;28;20842;-76
2022/07/20 03:19:58;;;;;;;10.00;5.43;;;24.90;6.40;;;;;;5053978;28;20424;-76
2022/07/20 03:22:24;;;;;;;7.80;4.87;;;24.90;6.40;;;;;;5053944;28;20862;-76
2022/07/20 03:24:49;;;;;;;10.23;5.70;;;24.90;6.30;;;;;;5054135;28;20410;-76
2022/07/20 03:27:15;;;;;;;10.18;4.40;;;24.80;6.50;;;;;;5053681;28;20397;-76
2022/07/20 03:29:41;;;;;;;9.20;5.37;;;24.70;6.60;;;;;;5053837;28;20492;-76
2022/07/20 03:32:07;;;;;;;11.80;4.97;;;24.70;6.90;;;;;;5053502;28;20396;-76
2022/07/20 03:34:33;;;;;;;7.00;4.70;;;24.60;7.10;;;;;;5053824;28;20452;-76
2022/07/20 03:36:58;;;;;;;9.77;4.80;;;24.50;7.30;;;;;;5053621;28;20416;-76
2022/07/20 03:39:24;;;;;;;10.03;4.50;;;24.50;7.60;;;;;;5053705;28;20389;-76
2022/07/20 03:41:50;;;;;;;6.50;4.57;;;24.40;7.90;;;;;;5053321;28;20468;-76
2022/07/20 03:44:15;;;;;;;8.40;4.60;;;24.30;8.20;;;;;;5053808;28;20393;-76
2022/07/20 03:46:41;;;;;;;8.40;5.40;;;24.20;8.20;;;;;;5053246;28;20443;-76
2022/07/20 03:49:06;;;;;;;6.13;5.20;;;24.20;8.30;;;;;;5052118;28;20777;-76
2022/07/20 03:51:32;;;;;;;11.07;5.10;;;24.20;8.50;;;;;;5053267;28;20381;-76
2022/07/20 03:53:57;;;;;;;6.07;5.03;;;24.10;8.60;;;;;;5053381;28;20385;-76
2022/07/20 03:56:23;;;;;;;6.07;5.00;;;24.00;8.90;;;;;;5053473;28;20431;-76
2022/07/20 03:58:48;;;;;;;14.75;5.55;;;24.10;9.00;;;;;;5053345;28;20435;-76
2022/07/20 04:01:14;;;;;;;12.20;5.00;;;24.10;8.90;;;;;;5053178;28;20425;-76
2022/07/20 04:03:39;;;;;;;8.90;5.50;;;23.90;9.20;;;;;;5053617;28;20393;-76
2022/07/20 04:06:05;;;;;;;8.43;5.90;;;23.80;9.40;;;;;;5053524;28;20392;-76
2022/07/20 04:08:31;;;;;;;10.15;5.35;;;23.70;9.70;;;;;;5053311;28;20793;-77
2022/07/20 04:10:57;;;;;;;11.50;6.53;;;23.80;9.70;;;;;;5053910;28;20509;-77
2022/07/20 04:13:22;;;;;;;9.60;6.13;;;23.90;9.70;;;;;;5054407;28;20465;-76
2022/07/20 04:15:48;;;;;;;15.85;6.63;;;24.00;9.70;;;;;;5052968;28;20382;-76
2022/07/20 04:18:17;;;;;;;9.23;5.77;;;23.90;10.10;;;;;;5052771;28;20936;-76
2022/07/20 04:20:43;;;;;;;10.43;6.23;;;23.90;10.10;;;;;;5052803;28;20385;-75
2022/07/20 04:23:09;;;;;;;8.77;5.80;;;23.90;10.30;;;;;;5052556;28;20410;-75
2022/07/20 04:25:34;;;;;;;13.45;6.28;;;23.90;10.60;;;;;;5051704;28;20400;-76
2022/07/20 04:28:00;;;;;;;15.55;6.38;;;23.90;10.60;;;;;;5052750;28;20428;-76
2022/07/20 04:30:26;;;;;;;16.10;6.30;;;23.80;11.00;;;;;;5053515;28;20405;-77
2022/07/20 04:32:51;;;;;;;13.70;6.35;;;23.80;10.80;;;;;;5053478;28;20427;-76
2022/07/20 04:35:17;;;;;;;14.23;5.90;;;23.80;11.00;;;;;;5054143;28;20390;-76
2022/07/20 04:37:42;;;;;;;14.68;6.10;;;23.80;11.00;;;;;;5053866;28;20381;-76
2022/07/20 04:40:09;;;;;;;15.53;6.70;;;23.90;10.90;;;;;;5053787;28;20428;-76
2022/07/20 04:42:35;;;;;;;11.57;6.43;;;24.00;10.70;;;;;;5052772;28;20386;-76
2022/07/20 04:45:00;;;;;;;14.30;6.10;;;24.00;10.70;;;;;;5052642;28;20400;-75
2022/07/20 04:47:26;;;;;;;9.32;5.80;;;24.10;10.80;;;;;;5053235;28;20470;-75
2022/07/20 04:49:51;;;;;;;14.00;5.90;;;24.10;10.70;;;;;;5052943;28;20512;-75
2022/07/20 04:52:17;;;;;;;14.80;6.43;;;24.20;10.00;;;;;;5052643;28;20477;-75
2022/07/20 04:54:42;;;;;;;10.63;5.97;;;24.30;10.00;;;;;;5052938;28;20476;-77
2022/07/20 04:57:09;;;;;;;14.90;7.37;;;24.30;10.40;;;;;;5052459;28;20793;-77
2022/07/20 04:59:34;;;;;;;21.38;7.57;;;24.30;9.50;;;;;;5053175;28;20421;-75
2022/07/20 05:02:00;;;;;;;12.55;7.00;;;24.40;9.70;;;;;;5050664;28;20424;-76
2022/07/20 05:04:25;;;;;;;17.20;7.90;;;24.50;9.50;;;;;;5052469;28;20384;-76
2022/07/20 05:06:51;;;;;;;13.25;7.95;;;24.60;9.70;;;;;;5052401;28;20389;-76
2022/07/20 05:09:17;;;;;;;16.40;8.60;;;24.60;9.90;;;;;;5052302;28;20435;-76
2022/07/20 05:11:42;;;;;;;16.20;8.35;;;24.60;10.20;;;;;;5053105;28;20417;-75
2022/07/20 05:14:09;;;;;;;19.87;9.10;;;24.70;10.40;;;;;;5053087;28;20901;-75
2022/07/20 05:16:35;;;;;;;19.27;9.98;;;24.70;10.60;;;;;;5052939;28;20382;-77
2022/07/20 05:19:01;;;;;;;22.40;10.10;;;24.70;11.20;;;;;;5052881;28;20831;-77
2022/07/20 05:21:26;;;;;;;16.60;10.60;;;24.70;11.40;;;;;;5054475;28;20738;-76
2022/07/20 05:23:52;;;;;;;21.47;10.70;;;24.60;11.60;;;;;;5054034;28;20381;-76
2022/07/20 05:26:18;;;;;;;17.77;11.13;;;24.60;11.90;;;;;;5053916;28;20389;-76
2022/07/20 05:28:43;;;;;;;19.85;10.57;;;24.50;12.10;;;;;;5053866;28;20464;-75
2022/07/20 05:31:09;;;;;;;19.73;12.23;;;24.60;12.30;;;;;;5061147;28;20409;-77
2022/07/20 05:33:36;;;;;;;22.58;12.68;;;24.60;12.70;;;;;;5061209;28;20412;-76
2022/07/20 05:36:02;;;;;;;23.53;12.77;;;24.60;12.90;;;;;;5060885;28;20386;-76
2022/07/20 05:38:28;;;;;;;33.90;14.18;;;24.60;13.10;;;;;;5057661;28;20388;-75
2022/07/20 05:40:55;;;;;;;29.20;14.70;;;24.60;13.50;;;;;;5056072;28;20878;-75
2022/07/20 05:43:21;;;;;;;27.23;14.43;;;24.60;13.70;;;;;;5055403;28;20774;-74
2022/07/20 05:45:47;;;;;;;26.17;16.40;;;24.60;13.90;;;;;;5055988;28;20413;-75
2022/07/20 05:48:13;;;;;;;27.73;15.20;;;24.70;14.60;;;;;;5053720;28;20904;-75
2022/07/20 05:50:40;;;;;;;31.40;16.77;;;24.70;14.70;;;;;;5057759;28;20437;-75
2022/07/20 05:53:06;;;;;;;28.55;16.83;;;24.70;15.20;;;;;;5051603;28;20373;-76
2022/07/20 05:55:33;;;;;;;35.25;18.23;;;24.80;15.30;;;;;;5051842;28;20390;-76
2022/07/20 05:57:58;;;;;;;36.85;17.08;;;24.80;15.30;;;;;;5051637;28;20396;-77
2022/07/20 06:00:24;;;;;;;40.07;20.03;;;24.90;15.40;;;;;;5051488;28;20473;-75
2022/07/20 06:02:50;;;;;;;29.80;19.08;;;25.00;15.80;;;;;;5051584;28;20900;-74
2022/07/20 06:05:15;;;;;;;31.77;19.53;;;25.00;15.80;;;;;;5051821;28;20378;-75
2022/07/20 06:07:41;;;;;;;34.50;19.88;;;25.10;15.80;;;;;;5049986;28;20420;-76
2022/07/20 06:10:07;;;;;;;36.20;20.50;;;25.10;16.00;;;;;;5052140;28;20409;-76
2022/07/20 06:12:32;;;;;;;37.67;22.77;;;25.20;15.90;;;;;;5055986;28;20378;-75
2022/07/20 06:14:58;;;;;;;41.40;22.52;;;25.40;16.00;;;;;;5052633;28;20446;-75
2022/07/20 06:17:23;;;;;;;36.17;24.90;;;25.30;16.20;;;;;;5050286;28;20385;-76
2022/07/20 06:19:49;;;;;;;31.08;21.95;;;25.50;16.00;;;;;;5051954;28;20439;-75
2022/07/20 06:22:14;;;;;;;40.80;24.20;;;25.60;16.10;;;;;;5051776;28;20392;-76
2022/07/20 06:24:40;;;;;;;44.53;27.20;;;25.50;16.20;;;;;;5052208;28;20389;-75
2022/07/20 06:27:06;;;;;;;34.60;23.90;;;25.50;16.50;;;;;;5051657;28;20454;-77
2022/07/20 06:29:31;;;;;;;42.85;25.23;;;25.60;16.50;;;;;;5053296;28;20405;-75
2022/07/20 06:31:57;;;;;;;45.70;24.07;;;25.70;16.40;;;;;;5050842;28;20393;-75
2022/07/20 06:34:22;;;;;;;37.25;25.30;;;25.80;16.50;;;;;;5052640;28;20377;-75
2022/07/20 06:36:48;;;;;;;44.20;24.70;;;25.90;16.30;;;;;;5053425;28;20385;-76
2022/07/20 06:39:14;;;;;;;49.38;33.47;;;26.10;16.10;;;;;;5052585;28;20439;-76
2022/07/20 06:41:39;;;;;;;33.93;24.40;;;26.30;15.80;;;;;;5051011;28;20392;-76
2022/07/20 06:44:05;;;;;;;40.47;25.70;;;26.60;15.10;;;;;;5052198;28;20435;-76
2022/07/20 06:46:30;;;;;;;41.70;25.67;;;27.00;15.10;;;;;;5051916;28;20389;-76
2022/07/20 06:48:56;;;;;;;35.95;24.33;;;27.40;14.10;;;;;;5053406;28;20918;-76
2022/07/20 06:51:24;;;;;;;35.13;23.90;;;27.60;13.40;;;;;;5055070;28;20436;-76
2022/07/20 06:53:50;;;;;;;40.47;25.02;;;27.60;13.70;;;;;;5054194;28;20386;-76
2022/07/20 06:56:15;;;;;;;40.40;24.60;;;27.50;13.50;;;;;;5054988;28;20420;-76
2022/07/20 06:58:41;;;;;;;38.07;23.57;;;27.40;13.40;;;;;;5055512;28;20791;-76
2022/07/20 07:01:07;;;;;;;39.13;26.00;;;27.30;14.30;;;;;;5054635;28;20385;-76
2022/07/20 07:03:32;;;;;;;39.97;25.00;;;27.10;14.20;;;;;;5054695;28;20389;-76
2022/07/20 07:05:58;;;;;;;33.63;24.75;;;27.00;14.30;;;;;;5054567;28;20393;-76
2022/07/20 07:08:23;;;;;;;43.43;26.23;;;27.00;14.80;;;;;;5054662;28;20377;-76
2022/07/20 07:10:49;;;;;;;39.65;26.38;;;27.00;14.40;;;;;;5054390;28;20527;-76
2022/07/20 07:13:14;;;;;;;38.90;25.20;;;27.10;14.30;;;;;;5054227;28;20382;-76
2022/07/20 07:15:40;;;;;;;41.25;25.65;;;27.20;14.10;;;;;;5054224;28;20431;-76
2022/07/20 07:18:05;;;;;;;37.83;25.77;;;27.50;14.30;;;;;;5054005;28;20469;-76
2022/07/20 07:20:31;;;;;;;40.70;25.50;;;27.40;14.10;;;;;;5054224;28;20919;-75
2022/07/20 07:22:56;;;;;;;47.13;26.33;;;27.50;14.00;;;;;;5053819;28;20485;-77
2022/07/20 07:25:22;;;;;;;35.73;24.23;;;27.50;14.20;;;;;;5054190;28;20442;-76
2022/07/20 07:27:48;;;;;;;43.03;26.17;;;27.80;13.90;;;;;;5053700;28;20421;-76
2022/07/20 07:30:13;;;;;;;38.00;26.30;;;27.80;13.60;;;;;;5053752;28;20405;-75
2022/07/20 07:32:39;;;;;;;38.25;25.95;;;27.60;14.10;;;;;;5053647;28;20480;-76
2022/07/20 07:35:05;;;;;;;45.47;25.47;;;27.60;13.80;;;;;;5052427;28;20909;-76
2022/07/20 07:37:30;;;;;;;38.00;25.88;;;27.60;14.00;;;;;;5053565;28;20523;-76
2022/07/20 07:39:56;;;;;;;46.87;26.03;;;27.50;14.20;;;;;;5053917;28;20460;-76
2022/07/20 07:42:22;;;;;;;44.60;25.65;;;27.40;14.10;;;;;;5053461;28;20410;-77
2022/07/20 07:44:48;;;;;;;45.50;26.38;;;27.40;14.00;;;;;;5053892;28;20386;-75
2022/07/20 07:47:14;;;;;;;39.45;26.08;;;27.50;13.80;;;;;;5053484;28;20916;-75
2022/07/20 07:49:39;;;;;;;39.50;26.70;;;27.60;13.70;;;;;;5052722;28;20894;-76
2022/07/20 07:52:05;;;;;;;35.58;25.65;;;27.60;13.40;;;;;;5053487;28;20915;-75
2022/07/20 07:54:31;;;;;;;43.93;27.50;;;27.70;13.60;;;;;;5054033;28;20382;-75
2022/07/20 07:56:56;;;;;;;39.17;25.95;;;27.60;13.80;;;;;;5055198;28;20821;-75
2022/07/20 07:59:22;;;;;;;39.83;26.27;;;27.60;13.70;;;;;;5056254;28;20890;-75
2022/07/20 08:01:47;;;;;;;40.80;25.65;;;27.50;14.00;;;;;;5056744;28;20889;-76
2022/07/20 08:04:13;;;;;;;38.73;24.93;;;27.50;13.70;;;;;;5057451;28;20390;-77
2022/07/20 08:06:38;;;;;;;42.00;25.63;;;27.60;13.80;;;;;;5058389;28;20815;-77
2022/07/20 08:09:04;;;;;;;34.90;25.13;;;27.70;13.30;;;;;;5057505;28;20435;-76
2022/07/20 08:11:30;;;;;;;36.00;23.77;;;27.80;12.90;;;;;;5054769;28;20818;-77
2022/07/20 08:13:55;;;;;;;33.80;23.73;;;27.90;12.70;;;;;;5054488;28;20421;-76
2022/07/20 08:16:21;;;;;;;35.38;23.90;;;27.80;12.70;;;;;;5054563;28;20392;-76
2022/07/20 08:18:47;;;;;;;33.47;22.70;;;27.60;13.20;;;;;;5054127;28;20425;-76
2022/07/20 08:21:12;;;;;;;33.78;22.95;;;27.60;13.20;;;;;;5053564;28;20384;-76
2022/07/20 08:23:38;;;;;;;35.97;22.37;;;27.80;12.70;;;;;;5052689;28;20401;-75
2022/07/20 08:26:03;;;;;;;33.00;22.63;;;27.90;12.40;;;;;;5053472;28;20786;-76
2022/07/20 08:28:29;;;;;;;32.25;22.02;;;28.10;12.20;;;;;;5053912;28;20452;-76
2022/07/20 08:30:55;;;;;;;36.40;22.03;;;27.90;12.10;;;;;;5052613;28;20405;-74
2022/07/20 08:33:21;;;;;;;33.50;23.70;;;27.90;12.20;;;;;;5055050;28;20467;-76
2022/07/20 08:35:46;;;;;;;30.45;22.50;;;28.00;12.40;;;;;;5060076;28;20961;-77
2022/07/20 08:38:12;;;;;;;30.87;23.03;;;28.20;12.10;;;;;;5056808;28;20476;-76
2022/07/20 08:40:38;;;;;;;36.20;23.17;;;28.30;12.00;;;;;;5057323;28;20414;-77
2022/07/20 08:43:04;;;;;;;34.87;23.00;;;28.20;12.00;;;;;;5053018;28;20412;-75
2022/07/20 08:45:31;;;;;;;35.15;23.05;;;28.40;12.40;;;;;;5051177;28;20403;-76
2022/07/20 08:48:00;;;;;;;36.60;23.75;;;28.50;11.70;;;;;;5052373;28;20401;-76
2022/07/20 08:50:29;;;;;;;35.78;23.60;;;28.30;12.00;;;;;;5053152;28;20402;-76
2022/07/20 08:52:56;;;;;;;33.17;23.05;;;28.20;12.40;;;;;;5052694;28;20809;-76
2022/07/20 08:55:23;;;;;;;33.67;22.60;;;28.00;13.00;;;;;;5053896;28;20734;-78
2022/07/20 08:57:49;;;;;;;31.35;22.90;;;27.90;13.20;;;;;;5054030;28;20381;-76
2022/07/20 09:00:15;;;;;;;30.60;22.07;;;28.10;13.50;;;;;;5053016;28;20901;-76
2022/07/20 09:03:02;;;;;;;43.65;23.40;;;28.30;13.10;;;;;;5053318;28;20882;-76
2022/07/20 09:05:30;;;;;;;36.77;23.10;;;28.30;12.80;;;;;;5051744;28;20394;-76
2022/07/20 09:07:57;;;;;;;35.17;22.30;;;28.20;13.00;;;;;;5052190;28;20442;-76
2022/07/20 09:10:33;;;;;;;35.65;22.52;;;28.20;13.40;;;;;;5051482;28;20409;-76
2022/07/20 09:13:03;;;;;;;36.13;23.10;;;28.00;14.00;;;;;;5054326;28;20378;-76
2022/07/20 09:15:38;;;;;;;32.88;22.88;;;28.10;13.80;;;;;;5053044;28;20389;-75
2022/07/20 09:18:09;;;;;;;33.90;21.30;;;28.40;13.60;;;;;;5054525;28;20464;-76
2022/07/20 09:20:37;;;;;;;34.60;21.73;;;28.60;12.80;;;;;;5056818;28;20381;-76
2022/07/20 09:23:05;;;;;;;25.15;20.67;;;28.80;12.60;;;;;;5053654;28;20385;-76
2022/07/20 09:25:31;;;;;;;28.65;18.30;;;28.90;11.40;;;;;;5052952;28;20388;-75
2022/07/20 09:27:58;;;;;;;29.13;19.02;;;28.60;11.30;;;;;;5053691;28;20822;-75
2022/07/20 09:30:24;;;;;;;31.77;19.70;;;28.20;12.60;;;;;;5052083;28;20397;-76
2022/07/20 09:32:56;;;;;;;29.83;18.77;;;27.90;12.40;;;;;;5051680;28;20378;-76
2022/07/20 09:35:25;;;;;;;26.55;18.90;;;28.00;13.00;;;;;;5051022;28;20949;-76
2022/07/20 09:37:51;;;;;;;33.20;19.87;;;28.30;12.70;;;;;;5052699;28;20428;-76
2022/07/20 09:40:16;;;;;;;30.45;19.25;;;28.30;12.40;;;;;;5052148;28;20393;-76
2022/07/20 09:42:43;;;;;;;27.73;18.70;;;28.10;13.00;;;;;;5052121;28;20471;-75
2022/07/20 09:45:20;;;;;;;28.35;18.60;;;28.40;12.40;;;;;;5052046;28;20381;-76
2022/07/20 09:48:08;;;;;;;28.77;17.83;;;28.50;12.00;;;;;;5051789;28;20403;-76
2022/07/20 09:50:38;;;;;;;23.90;17.58;;;28.50;12.20;;;;;;5053383;28;20405;-77
2022/07/20 09:53:04;;;;;;;30.67;19.37;;;28.80;11.20;;;;;;5054191;28;20377;-76
2022/07/20 09:55:32;;;;;;;23.02;16.58;;;29.10;10.80;;;;;;5055035;28;20397;-76
2022/07/20 09:57:59;;;;;;;28.98;16.90;;;29.10;11.00;;;;;;5057943;28;20400;-76
2022/07/20 10:00:25;;;;;;;30.88;16.83;;;28.90;11.00;;;;;;5057599;28;20793;-77
2022/07/20 10:02:54;;;;;;;29.53;17.97;;;29.00;12.00;;;;;;5052907;28;20385;-76
2022/07/20 10:05:22;;;;;;;21.40;15.45;;;29.10;11.20;;;;;;5052814;28;20783;-76
2022/07/20 10:07:48;;;;;;;27.10;17.65;;;28.70;12.00;;;;;;5052632;28;20385;-75
2022/07/20 10:10:14;;;;;;;30.58;18.52;;;28.60;12.20;;;;;;5053599;28;20413;-76
2022/07/20 10:12:40;;;;;;;29.63;18.23;;;28.90;11.70;;;;;;5055434;28;20484;-75
2022/07/20 10:15:15;;;;;;;28.52;18.90;;;29.40;11.20;;;;;;5055302;28;20866;-75
2022/07/20 10:17:43;;;;;;;31.67;18.83;;;29.30;11.10;;;;;;5056551;28;20484;-76
2022/07/20 10:20:31;;;;;;;26.73;17.60;;;29.10;11.50;;;;;;5057195;28;20393;-75
2022/07/20 10:23:15;;;;;;;32.80;17.50;;;29.00;11.80;;;;;;5055433;28;20397;-76
2022/07/20 10:25:45;;;;;;;33.90;18.90;;;28.90;12.10;;;;;;5056749;28;20435;-76
2022/07/20 10:28:27;;;;;;;29.90;19.55;;;28.90;12.10;;;;;;5055837;28;20396;-75
2022/07/20 10:30:58;;;;;;;26.00;19.27;;;28.80;12.60;;;;;;5054375;28;20861;-76
2022/07/20 10:33:25;;;;;;;26.15;18.23;;;28.60;12.70;;;;;;5056382;28;20584;-75
2022/07/20 10:36:41;;;;;;;28.05;19.30;;;28.50;13.20;;;;;;5057701;28;20738;-75
2022/07/20 10:38:38;;;;;;;33.23;19.60;;;28.30;14.10;;;;;;5056943;28;20595;-76
2022/07/20 10:44:28;;;;;;;29.42;20.30;;;28.60;13.40;;;;;;5056769;28;20435;-76
2022/07/20 10:46:54;;;;;;;30.70;19.75;;;29.00;13.00;;;;;;5029368;28;20983;-76
2022/07/20 10:49:39;;;;;;;27.67;19.10;;;29.40;12.20;;;;;;5049933;28;20459;-75
2022/07/20 10:52:31;;;;;;;29.77;18.30;;;29.80;11.30;;;;;;5050789;28;20392;-76
2022/07/20 10:54:57;;;;;;;29.20;18.23;;;30.00;11.60;;;;;;5051339;28;20420;-76
2022/07/20 10:57:24;;;;;;;25.23;18.27;;;29.40;12.10;;;;;;5050979;28;20401;-75
2022/07/20 11:00:06;;;;;;;32.75;19.08;;;29.30;12.50;;;;;;5051405;28;20753;-76
2022/07/20 11:02:33;;;;;;;27.38;19.17;;;29.40;12.70;;;;;;5051584;28;20392;-76
2022/07/20 11:04:59;;;;;;;29.83;18.85;;;29.50;12.10;;;;;;5051652;28;20797;-77
2022/07/20 11:07:34;;;;;;;27.20;17.90;;;29.30;12.20;;;;;;5050915;28;20554;-76
2022/07/20 11:10:18;;;;;;;26.98;16.33;;;29.50;11.60;;;;;;5049627;28;20410;-76
2022/07/20 11:12:54;;;;;;;19.58;14.90;;;29.50;11.10;;;;;;5050633;28;20385;-76
2022/07/20 11:15:19;;;;;;;24.60;15.90;;;29.70;10.70;;;;;;5050766;28;20507;-76
2022/07/20 11:17:45;;;;;;;22.73;16.00;;;29.70;10.60;;;;;;5051044;28;20848;-76
2022/07/20 11:20:10;;;;;;;21.30;14.98;;;29.80;10.40;;;;;;5052566;28;20417;-76
2022/07/20 11:22:37;;;;;;;21.10;15.90;;;29.70;10.40;;;;;;5055491;28;20758;-77
2022/07/20 11:25:03;;;;;;;20.17;14.65;;;29.80;10.60;;;;;;5055761;28;20392;-76
2022/07/20 11:27:28;;;;;;;23.00;13.55;;;29.90;10.00;;;;;;5053091;28;20417;-77
2022/07/20 11:29:54;;;;;;;19.20;14.57;;;29.80;10.10;;;;;;5054099;28;20412;-76
2022/07/20 11:32:20;;;;;;;20.70;14.55;;;29.80;10.20;;;;;;5056733;28;20381;-77
2022/07/20 11:34:49;;;;;;;21.10;14.13;;;29.80;10.40;;;;;;5057546;28;20766;-77
2022/07/20 11:37:18;;;;;;;21.33;13.70;;;30.10;10.30;;;;;;5056367;28;20416;-76
2022/07/20 11:39:44;;;;;;;20.58;13.50;;;30.20;9.90;;;;;;5053972;28;20480;-75
2022/07/20 11:42:12;;;;;;;22.42;13.13;;;30.30;9.90;;;;;;5054407;28;20389;-75
2022/07/20 11:44:38;;;;;;;22.08;13.07;;;30.30;9.40;;;;;;5054054;28;20392;-76
2022/07/20 11:47:06;;;;;;;20.67;12.18;;;30.30;8.50;;;;;;5053889;28;20882;-76
2022/07/20 11:49:32;;;;;;;21.20;11.93;;;30.40;8.30;;;;;;5052671;28;20897;-75
2022/07/20 11:52:00;;;;;;;18.27;11.63;;;30.30;8.40;;;;;;5054125;28;20382;-75
2022/07/20 11:54:29;;;;;;;13.68;10.00;;;30.40;8.50;;;;;;5054106;28;20384;-76
2022/07/20 11:56:55;;;;;;;14.68;10.63;;;30.30;8.00;;;;;;5054113;28;20397;-76
2022/07/20 11:59:21;;;;;;;18.27;10.20;;;30.10;8.10;;;;;;5054227;28;20385;-76
2022/07/20 12:01:49;;;;;;;18.58;10.93;;;30.30;8.00;;;;;;5054789;28;20386;-76
2022/07/20 12:04:17;;;;;;;15.23;10.45;;;30.20;8.70;;;;;;5053882;28;20393;-78
2022/07/20 12:06:43;;;;;;;15.35;10.70;;;29.70;9.20;;;;;;5054787;28;20750;-74
2022/07/20 12:09:12;;;;;;;14.90;10.30;;;29.70;9.00;;;;;;5055098;28;20374;-77
2022/07/20 12:12:07;;;;;;;18.88;10.57;;;29.80;8.70;;;;;;5053470;28;20409;-75
2022/07/20 12:14:38;;;;;;;15.18;9.75;;;30.40;8.40;;;;;;5053899;28;20485;-76
2022/07/20 12:17:30;;;;;;;12.80;8.00;;;30.90;6.30;;;;;;5053550;28;20435;-76
2022/07/20 12:19:57;;;;;;;11.40;8.60;;;31.10;6.30;;;;;;5052345;28;20404;-76
2022/07/20 12:22:26;;;;;;;11.27;8.07;;;31.30;5.50;;;;;;5053762;28;20390;-75
2022/07/20 12:24:58;;;;;;;13.53;8.57;;;31.10;5.80;;;;;;5054463;28;20409;-74
2022/07/20 12:27:26;;;;;;;12.70;8.60;;;30.90;5.90;;;;;;5052988;28;20390;-75
2022/07/20 12:29:52;;;;;;;11.60;8.00;;;30.80;6.20;;;;;;5053325;28;20444;-76
2022/07/20 12:32:28;;;;;;;15.10;7.72;;;31.00;6.00;;;;;;5054874;28;20834;-76
2022/07/20 12:34:55;;;;;;;11.52;7.90;;;31.10;6.20;;;;;;5049965;28;20406;-75
2022/07/20 12:37:21;;;;;;;11.70;8.53;;;31.30;6.10;;;;;;5054901;28;20389;-76
2022/07/20 12:39:53;;;;;;;8.90;8.00;;;31.10;5.90;;;;;;5058980;28;20385;-76
2022/07/20 12:42:29;;;;;;;10.40;8.15;;;31.10;6.40;;;;;;5042842;28;20432;-76